sensor_id;sensor_type;location;lat;lon;timestamp;P1;durP1;ratioP1;P2;durP2;ratioP2
31087;SDS011;17745;55.914;37.554;2022-10-22T00:00:44;25.75;;;13.27;;
31087;SDS011;17745;55.914;37.554;2022-10-22T00:03:19;24.75;;;10.43;;
31087;SDS011;17745;55.914;37.554;2022-10-22T00:53:28;17.48;;;11.20;;
31087;SDS011;17745;55.914;37.554;2022-10-22T00:57:08;21.52;;;11.25;;
31087;SDS011;17745;55.914;37.554;2022-10-22T01:00:40;21.02;;;9.05;;
31087;SDS011;17745;55.914;37.554;2022-10-22T02:42:50;14.27;;;9.32;;
31087;SDS011;17745;55.914;37.554;2022-10-22T02:45:24;15.57;;;8.90;;
31087;SDS011;17745;55.914;37.554;2022-10-22T02:54:09;13.68;;;8.55;;
31087;SDS011;17745;55.914;37.554;2022-10-22T02:56:55;13.90;;;8.10;;
31087;SDS011;17745;55.914;37.554;2022-10-22T03:02:21;17.25;;;9.48;;
31087;SDS011;17745;55.914;37.554;2022-10-22T03:04:55;15.60;;;9.43;;
31087;SDS011;17745;55.914;37.554;2022-10-22T03:07:25;30.35;;;10.70;;
31087;SDS011;17745;55.914;37.554;2022-10-22T03:09:55;25.17;;;10.43;;
31087;SDS011;17745;55.914;37.554;2022-10-22T03:12:30;17.92;;;10.02;;
31087;SDS011;17745;55.914;37.554;2022-10-22T03:15:11;29.05;;;12.25;;
31087;SDS011;17745;55.914;37.554;2022-10-22T03:17:43;19.58;;;9.48;;
31087;SDS011;17745;55.914;37.554;2022-10-22T03:20:16;17.87;;;9.10;;
31087;SDS011;17745;55.914;37.554;2022-10-22T03:23:11;19.55;;;10.18;;
31087;SDS011;17745;55.914;37.554;2022-10-22T06:46:41;10.43;;;6.18;;
31087;SDS011;17745;55.914;37.554;2022-10-22T06:49:23;8.25;;;5.87;;
31087;SDS011;17745;55.914;37.554;2022-10-22T06:51:53;8.20;;;5.30;;
31087;SDS011;17745;55.914;37.554;2022-10-22T06:54:27;8.90;;;5.90;;
31087;SDS011;17745;55.914;37.554;2022-10-22T06:56:58;7.60;;;5.35;;
31087;SDS011;17745;55.914;37.554;2022-10-22T06:59:41;10.02;;;6.75;;
31087;SDS011;17745;55.914;37.554;2022-10-22T07:05:33;7.93;;;5.07;;
31087;SDS011;17745;55.914;37.554;2022-10-22T07:08:31;9.13;;;6.00;;
31087;SDS011;17745;55.914;37.554;2022-10-22T07:11:21;10.35;;;6.18;;
31087;SDS011;17745;55.914;37.554;2022-10-22T07:14:01;9.18;;;5.53;;
31087;SDS011;17745;55.914;37.554;2022-10-22T07:18:04;11.93;;;6.07;;
31087;SDS011;17745;55.914;37.554;2022-10-22T07:21:27;8.75;;;5.78;;
31087;SDS011;17745;55.914;37.554;2022-10-22T07:24:32;9.30;;;5.53;;
31087;SDS011;17745;55.914;37.554;2022-10-22T07:27:02;9.65;;;5.65;;
31087;SDS011;17745;55.914;37.554;2022-10-22T07:42:50;8.07;;;5.53;;
31087;SDS011;17745;55.914;37.554;2022-10-22T07:45:24;12.43;;;6.40;;
31087;SDS011;17745;55.914;37.554;2022-10-22T07:48:01;11.05;;;6.62;;
31087;SDS011;17745;55.914;37.554;2022-10-22T10:51:53;11.90;;;5.75;;
31087;SDS011;17745;55.914;37.554;2022-10-22T10:58:38;9.50;;;5.05;;
31087;SDS011;17745;55.914;37.554;2022-10-22T11:01:38;8.25;;;5.20;;
31087;SDS011;17745;55.914;37.554;2022-10-22T11:11:29;8.13;;;4.37;;
31087;SDS011;17745;55.914;37.554;2022-10-22T11:14:52;8.05;;;4.65;;
31087;SDS011;17745;55.914;37.554;2022-10-22T12:10:48;14.43;;;5.12;;
31087;SDS011;17745;55.914;37.554;2022-10-22T12:14:02;12.07;;;4.78;;
31087;SDS011;17745;55.914;37.554;2022-10-22T12:16:54;10.77;;;5.20;;
31087;SDS011;17745;55.914;37.554;2022-10-22T12:19:33;8.75;;;5.28;;
31087;SDS011;17745;55.914;37.554;2022-10-22T12:22:46;11.50;;;5.97;;
31087;SDS011;17745;55.914;37.554;2022-10-22T12:42:04;8.32;;;4.90;;
31087;SDS011;17745;55.914;37.554;2022-10-22T12:44:55;17.58;;;6.00;;
31087;SDS011;17745;55.914;37.554;2022-10-22T12:47:28;10.30;;;5.78;;
31087;SDS011;17745;55.914;37.554;2022-10-22T12:50:12;12.98;;;5.53;;
31087;SDS011;17745;55.914;37.554;2022-10-22T13:06:28;14.25;;;5.78;;
31087;SDS011;17745;55.914;37.554;2022-10-22T13:09:06;10.63;;;5.85;;
31087;SDS011;17745;55.914;37.554;2022-10-22T13:12:01;15.27;;;5.78;;
31087;SDS011;17745;55.914;37.554;2022-10-22T17:01:18;14.80;;;6.32;;
31087;SDS011;17745;55.914;37.554;2022-10-22T17:03:54;12.88;;;7.18;;
31087;SDS011;17745;55.914;37.554;2022-10-22T17:06:25;12.93;;;6.80;;
31087;SDS011;17745;55.914;37.554;2022-10-22T17:08:54;12.45;;;6.87;;
31087;SDS011;17745;55.914;37.554;2022-10-22T17:11:25;14.15;;;8.73;;
31087;SDS011;17745;55.914;37.554;2022-10-22T17:14:04;12.32;;;7.30;;
31087;SDS011;17745;55.914;37.554;2022-10-22T17:16:43;12.00;;;6.82;;
31087;SDS011;17745;55.914;37.554;2022-10-22T17:19:34;13.30;;;7.53;;
31087;SDS011;17745;55.914;37.554;2022-10-22T17:22:18;11.95;;;7.35;;
31087;SDS011;17745;55.914;37.554;2022-10-22T17:25:11;15.57;;;7.65;;
31087;SDS011;17745;55.914;37.554;2022-10-22T17:27:42;12.32;;;7.62;;
31087;SDS011;17745;55.914;37.554;2022-10-22T17:30:41;12.40;;;7.25;;
31087;SDS011;17745;55.914;37.554;2022-10-22T17:40:08;11.70;;;6.95;;
31087;SDS011;17745;55.914;37.554;2022-10-22T17:42:59;12.35;;;7.72;;
31087;SDS011;17745;55.914;37.554;2022-10-22T17:45:49;12.00;;;7.40;;
31087;SDS011;17745;55.914;37.554;2022-10-22T17:48:27;16.12;;;8.38;;
31087;SDS011;17745;55.914;37.554;2022-10-22T17:51:10;14.10;;;7.43;;
31087;SDS011;17745;55.914;37.554;2022-10-22T17:54:05;15.05;;;7.72;;
31087;SDS011;17745;55.914;37.554;2022-10-22T17:56:41;12.43;;;7.97;;
31087;SDS011;17745;55.914;37.554;2022-10-22T17:59:13;11.98;;;7.70;;
31087;SDS011;17745;55.914;37.554;2022-10-22T18:01:43;20.33;;;8.57;;
31087;SDS011;17745;55.914;37.554;2022-10-22T18:04:17;12.17;;;7.50;;
31087;SDS011;17745;55.914;37.554;2022-10-22T18:06:49;14.63;;;7.75;;
31087;SDS011;17745;55.914;37.554;2022-10-22T18:09:20;12.57;;;8.32;;
31087;SDS011;17745;55.914;37.554;2022-10-22T18:11:52;12.88;;;7.70;;
31087;SDS011;17745;55.914;37.554;2022-10-22T18:14:21;11.60;;;7.20;;
31087;SDS011;17745;55.914;37.554;2022-10-22T18:16:53;14.30;;;7.15;;
31087;SDS011;17745;55.914;37.554;2022-10-22T18:19:22;18.95;;;7.90;;
31087;SDS011;17745;55.914;37.554;2022-10-22T18:21:50;13.38;;;7.93;;
31087;SDS011;17745;55.914;37.554;2022-10-22T18:24:19;19.60;;;7.78;;
31087;SDS011;17745;55.914;37.554;2022-10-22T18:26:51;12.05;;;6.97;;
31087;SDS011;17745;55.914;37.554;2022-10-22T18:29:20;12.07;;;7.28;;
31087;SDS011;17745;55.914;37.554;2022-10-22T18:31:48;12.68;;;7.82;;
31087;SDS011;17745;55.914;37.554;2022-10-22T18:37:48;10.82;;;7.70;;
31087;SDS011;17745;55.914;37.554;2022-10-22T18:40:17;13.38;;;7.80;;
31087;SDS011;17745;55.914;37.554;2022-10-22T18:42:47;14.10;;;6.97;;
31087;SDS011;17745;55.914;37.554;2022-10-22T18:45:15;12.37;;;7.68;;
31087;SDS011;17745;55.914;37.554;2022-10-22T18:47:44;12.02;;;7.50;;
31087;SDS011;17745;55.914;37.554;2022-10-22T18:50:12;11.75;;;7.68;;
31087;SDS011;17745;55.914;37.554;2022-10-22T18:52:40;12.32;;;7.53;;
31087;SDS011;17745;55.914;37.554;2022-10-22T18:55:13;10.57;;;7.25;;
31087;SDS011;17745;55.914;37.554;2022-10-22T18:57:41;12.93;;;7.07;;
31087;SDS011;17745;55.914;37.554;2022-10-22T19:00:12;14.55;;;7.85;;
31087;SDS011;17745;55.914;37.554;2022-10-22T19:02:41;10.63;;;7.22;;
31087;SDS011;17745;55.914;37.554;2022-10-22T19:05:10;13.35;;;7.40;;
31087;SDS011;17745;55.914;37.554;2022-10-22T19:07:38;12.55;;;7.57;;
31087;SDS011;17745;55.914;37.554;2022-10-22T19:10:07;15.18;;;7.57;;
31087;SDS011;17745;55.914;37.554;2022-10-22T19:12:36;14.45;;;7.07;;
31087;SDS011;17745;55.914;37.554;2022-10-22T19:15:04;18.30;;;7.75;;
31087;SDS011;17745;55.914;37.554;2022-10-22T19:17:38;13.68;;;7.40;;
31087;SDS011;17745;55.914;37.554;2022-10-22T19:20:06;10.93;;;7.00;;
31087;SDS011;17745;55.914;37.554;2022-10-22T19:22:37;14.20;;;7.57;;
31087;SDS011;17745;55.914;37.554;2022-10-22T19:25:25;11.98;;;7.60;;
31087;SDS011;17745;55.914;37.554;2022-10-22T19:27:56;15.23;;;7.65;;
31087;SDS011;17745;55.914;37.554;2022-10-22T19:30:25;18.50;;;8.98;;
31087;SDS011;17745;55.914;37.554;2022-10-22T19:32:58;11.98;;;7.55;;
31087;SDS011;17745;55.914;37.554;2022-10-22T19:35:35;13.07;;;8.10;;
31087;SDS011;17745;55.914;37.554;2022-10-22T19:38:04;15.27;;;8.35;;
31087;SDS011;17745;55.914;37.554;2022-10-22T19:40:39;17.52;;;8.25;;
31087;SDS011;17745;55.914;37.554;2022-10-22T19:43:10;13.65;;;8.00;;
31087;SDS011;17745;55.914;37.554;2022-10-22T19:45:40;13.18;;;8.05;;
31087;SDS011;17745;55.914;37.554;2022-10-22T19:48:09;13.32;;;7.93;;
31087;SDS011;17745;55.914;37.554;2022-10-22T19:50:38;17.87;;;8.23;;
31087;SDS011;17745;55.914;37.554;2022-10-22T19:53:09;11.12;;;7.25;;
31087;SDS011;17745;55.914;37.554;2022-10-22T19:55:40;12.43;;;7.28;;
31087;SDS011;17745;55.914;37.554;2022-10-22T20:00:41;15.50;;;7.80;;
31087;SDS011;17745;55.914;37.554;2022-10-22T20:06:14;14.57;;;7.75;;
31087;SDS011;17745;55.914;37.554;2022-10-22T20:08:51;13.82;;;8.02;;
31087;SDS011;17745;55.914;37.554;2022-10-22T20:11:21;12.75;;;7.30;;
31087;SDS011;17745;55.914;37.554;2022-10-22T20:13:54;13.13;;;7.40;;
31087;SDS011;17745;55.914;37.554;2022-10-22T20:16:26;11.38;;;7.57;;
31087;SDS011;17745;55.914;37.554;2022-10-22T20:21:58;14.68;;;8.80;;
31087;SDS011;17745;55.914;37.554;2022-10-22T20:24:27;12.98;;;7.28;;
31087;SDS011;17745;55.914;37.554;2022-10-22T20:26:57;13.62;;;7.62;;
31087;SDS011;17745;55.914;37.554;2022-10-22T20:29:27;11.75;;;7.53;;
31087;SDS011;17745;55.914;37.554;2022-10-22T20:32:09;11.85;;;7.30;;
31087;SDS011;17745;55.914;37.554;2022-10-22T20:34:47;13.57;;;7.32;;
31087;SDS011;17745;55.914;37.554;2022-10-22T20:37:17;13.95;;;8.00;;
31087;SDS011;17745;55.914;37.554;2022-10-22T20:39:47;11.88;;;7.45;;
31087;SDS011;17745;55.914;37.554;2022-10-22T20:42:20;16.58;;;8.43;;
31087;SDS011;17745;55.914;37.554;2022-10-22T20:44:53;10.93;;;6.90;;
31087;SDS011;17745;55.914;37.554;2022-10-22T20:47:21;13.75;;;6.87;;
31087;SDS011;17745;55.914;37.554;2022-10-22T20:49:50;10.43;;;7.20;;
31087;SDS011;17745;55.914;37.554;2022-10-22T20:52:21;10.77;;;7.25;;
31087;SDS011;17745;55.914;37.554;2022-10-22T20:54:50;11.93;;;7.53;;
31087;SDS011;17745;55.914;37.554;2022-10-22T20:57:23;11.57;;;7.25;;
31087;SDS011;17745;55.914;37.554;2022-10-22T20:59:53;14.13;;;7.22;;
31087;SDS011;17745;55.914;37.554;2022-10-22T21:02:33;10.02;;;6.90;;
31087;SDS011;17745;55.914;37.554;2022-10-22T21:05:02;12.98;;;7.15;;
31087;SDS011;17745;55.914;37.554;2022-10-22T21:07:32;9.85;;;6.82;;
31087;SDS011;17745;55.914;37.554;2022-10-22T21:10:08;13.52;;;6.95;;
31087;SDS011;17745;55.914;37.554;2022-10-22T21:12:37;10.35;;;7.20;;
31087;SDS011;17745;55.914;37.554;2022-10-22T21:15:07;11.90;;;6.93;;
31087;SDS011;17745;55.914;37.554;2022-10-22T21:17:36;14.50;;;7.30;;
31087;SDS011;17745;55.914;37.554;2022-10-22T21:20:06;11.40;;;7.28;;
31087;SDS011;17745;55.914;37.554;2022-10-22T21:22:36;13.23;;;7.05;;
31087;SDS011;17745;55.914;37.554;2022-10-22T21:25:09;12.88;;;6.78;;
31087;SDS011;17745;55.914;37.554;2022-10-22T21:27:37;10.15;;;6.60;;
31087;SDS011;17745;55.914;37.554;2022-10-22T21:30:08;13.77;;;7.60;;
31087;SDS011;17745;55.914;37.554;2022-10-22T21:32:39;12.90;;;8.30;;
31087;SDS011;17745;55.914;37.554;2022-10-22T21:35:14;13.55;;;7.75;;
31087;SDS011;17745;55.914;37.554;2022-10-22T21:37:51;13.60;;;7.10;;
31087;SDS011;17745;55.914;37.554;2022-10-22T21:40:19;13.15;;;6.80;;
31087;SDS011;17745;55.914;37.554;2022-10-22T21:42:53;12.37;;;6.53;;
31087;SDS011;17745;55.914;37.554;2022-10-22T21:45:21;11.32;;;6.85;;
31087;SDS011;17745;55.914;37.554;2022-10-22T21:47:51;15.55;;;7.45;;
31087;SDS011;17745;55.914;37.554;2022-10-22T21:50:19;9.88;;;6.50;;
31087;SDS011;17745;55.914;37.554;2022-10-22T21:52:47;11.98;;;6.93;;
31087;SDS011;17745;55.914;37.554;2022-10-22T21:55:16;12.93;;;7.60;;
31087;SDS011;17745;55.914;37.554;2022-10-22T21:57:44;11.45;;;6.82;;
31087;SDS011;17745;55.914;37.554;2022-10-22T22:00:15;13.43;;;7.28;;
31087;SDS011;17745;55.914;37.554;2022-10-22T22:02:48;13.10;;;7.43;;
31087;SDS011;17745;55.914;37.554;2022-10-22T22:05:16;12.00;;;7.40;;
31087;SDS011;17745;55.914;37.554;2022-10-22T22:07:51;12.00;;;7.35;;
31087;SDS011;17745;55.914;37.554;2022-10-22T22:10:21;13.02;;;7.93;;
31087;SDS011;17745;55.914;37.554;2022-10-22T22:12:50;13.48;;;7.90;;
31087;SDS011;17745;55.914;37.554;2022-10-22T22:15:18;16.30;;;8.25;;
31087;SDS011;17745;55.914;37.554;2022-10-22T22:17:47;15.70;;;8.65;;
31087;SDS011;17745;55.914;37.554;2022-10-22T22:20:15;13.45;;;8.27;;
31087;SDS011;17745;55.914;37.554;2022-10-22T22:22:45;14.18;;;8.43;;
31087;SDS011;17745;55.914;37.554;2022-10-22T22:25:14;14.70;;;8.43;;
31087;SDS011;17745;55.914;37.554;2022-10-22T22:27:44;11.85;;;8.07;;
31087;SDS011;17745;55.914;37.554;2022-10-22T22:30:12;16.80;;;7.95;;
31087;SDS011;17745;55.914;37.554;2022-10-22T22:32:40;15.85;;;8.32;;
31087;SDS011;17745;55.914;37.554;2022-10-22T22:35:10;14.75;;;8.02;;
31087;SDS011;17745;55.914;37.554;2022-10-22T22:37:38;12.80;;;7.43;;
31087;SDS011;17745;55.914;37.554;2022-10-22T22:40:07;11.82;;;8.00;;
31087;SDS011;17745;55.914;37.554;2022-10-22T22:42:35;14.82;;;8.02;;
31087;SDS011;17745;55.914;37.554;2022-10-22T22:45:06;12.27;;;7.47;;
31087;SDS011;17745;55.914;37.554;2022-10-22T22:47:34;11.40;;;7.75;;
31087;SDS011;17745;55.914;37.554;2022-10-22T22:50:02;15.05;;;7.12;;
31087;SDS011;17745;55.914;37.554;2022-10-22T22:52:31;11.43;;;6.70;;
31087;SDS011;17745;55.914;37.554;2022-10-22T22:54:59;11.68;;;7.47;;
31087;SDS011;17745;55.914;37.554;2022-10-22T22:57:28;11.30;;;7.25;;
31087;SDS011;17745;55.914;37.554;2022-10-22T22:59:56;11.43;;;7.75;;
31087;SDS011;17745;55.914;37.554;2022-10-22T23:02:26;11.52;;;7.82;;
31087;SDS011;17745;55.914;37.554;2022-10-22T23:04:54;14.05;;;7.70;;
31087;SDS011;17745;55.914;37.554;2022-10-22T23:07:21;11.98;;;7.62;;
31087;SDS011;17745;55.914;37.554;2022-10-22T23:09:50;13.65;;;8.30;;
31087;SDS011;17745;55.914;37.554;2022-10-22T23:12:18;13.15;;;8.43;;
31087;SDS011;17745;55.914;37.554;2022-10-22T23:14:48;13.93;;;7.97;;
31087;SDS011;17745;55.914;37.554;2022-10-22T23:17:17;13.32;;;7.95;;
31087;SDS011;17745;55.914;37.554;2022-10-22T23:19:47;13.90;;;8.10;;
31087;SDS011;17745;55.914;37.554;2022-10-22T23:22:15;14.35;;;8.52;;
31087;SDS011;17745;55.914;37.554;2022-10-22T23:24:43;13.15;;;8.38;;
31087;SDS011;17745;55.914;37.554;2022-10-22T23:27:11;12.88;;;8.35;;
31087;SDS011;17745;55.914;37.554;2022-10-22T23:29:38;15.55;;;8.30;;
31087;SDS011;17745;55.914;37.554;2022-10-22T23:32:07;19.25;;;8.63;;
31087;SDS011;17745;55.914;37.554;2022-10-22T23:34:39;16.90;;;8.27;;
31087;SDS011;17745;55.914;37.554;2022-10-22T23:37:09;12.73;;;7.62;;
31087;SDS011;17745;55.914;37.554;2022-10-22T23:39:38;13.82;;;8.40;;
31087;SDS011;17745;55.914;37.554;2022-10-22T23:42:06;14.75;;;9.77;;
31087;SDS011;17745;55.914;37.554;2022-10-22T23:44:35;14.57;;;8.57;;
31087;SDS011;17745;55.914;37.554;2022-10-22T23:47:03;15.55;;;9.13;;
31087;SDS011;17745;55.914;37.554;2022-10-22T23:49:31;16.90;;;9.00;;
31087;SDS011;17745;55.914;37.554;2022-10-22T23:52:00;18.08;;;10.00;;
31087;SDS011;17745;55.914;37.554;2022-10-22T23:54:29;17.25;;;8.85;;
31087;SDS011;17745;55.914;37.554;2022-10-22T23:56:56;14.93;;;9.13;;
31087;SDS011;17745;55.914;37.554;2022-10-22T23:59:25;16.08;;;10.15;;
